createdAt,value
2018-07-04T00:00:50.573Z,0
2018-07-04T00:01:52.846Z,0
2018-07-04T00:02:54.889Z,0
2018-07-04T00:03:56.891Z,0
2018-07-04T00:04:59.171Z,0
2018-07-04T00:06:01.164Z,0
2018-07-04T00:07:03.160Z,0
2018-07-04T00:08:05.240Z,0
2018-07-04T00:09:07.231Z,0
2018-07-04T00:10:09.511Z,0
2018-07-04T00:11:11.506Z,0
2018-07-04T00:12:13.505Z,0
2018-07-04T00:13:15.782Z,0
2018-07-04T00:14:18.115Z,0
2018-07-04T00:15:20.158Z,0
2018-07-04T00:16:22.159Z,0
2018-07-04T00:17:24.159Z,0
2018-07-04T00:18:26.165Z,0
2018-07-04T00:19:28.239Z,0
2018-07-04T00:20:30.230Z,0
2018-07-04T00:21:32.215Z,0
2018-07-04T00:22:34.213Z,0
2018-07-04T00:23:36.218Z,0
2018-07-04T00:24:38.216Z,0
2018-07-04T00:25:40.251Z,0
2018-07-04T00:26:42.207Z,0
2018-07-04T00:27:44.206Z,0
2018-07-04T00:28:46.476Z,0
2018-07-04T00:29:48.466Z,0
2018-07-04T00:30:50.748Z,0
2018-07-04T00:31:53.025Z,0
2018-07-04T00:32:55.020Z,0
2018-07-04T00:33:57.019Z,0
2018-07-04T00:34:59.407Z,0
2018-07-04T00:36:01.400Z,0
2018-07-04T00:37:03.410Z,0
2018-07-04T00:38:05.407Z,0
2018-07-04T00:39:07.401Z,0
2018-07-04T00:40:09.387Z,0
2018-07-04T00:41:11.385Z,0
2018-07-04T00:42:13.390Z,0
2018-07-04T00:43:15.378Z,0
2018-07-04T00:44:17.374Z,0
2018-07-04T00:45:19.363Z,0
2018-07-04T00:46:21.366Z,0
2018-07-04T00:47:23.368Z,0
2018-07-04T00:48:25.372Z,0
2018-07-04T00:49:27.361Z,0
2018-07-04T00:50:29.358Z,0
2018-07-04T00:51:31.349Z,0
2018-07-04T00:52:33.347Z,0
2018-07-04T00:53:35.341Z,0
2018-07-04T00:54:37.348Z,0
2018-07-04T00:55:39.339Z,0
2018-07-04T00:56:41.339Z,0
2018-07-04T00:57:43.330Z,0
2018-07-04T00:58:45.326Z,0
2018-07-04T00:59:47.318Z,0
2018-07-04T01:00:49.309Z,0
2018-07-04T01:01:51.582Z,0
2018-07-04T01:02:53.588Z,0
2018-07-04T01:03:55.581Z,0
2018-07-04T01:04:57.577Z,0
2018-07-04T01:05:59.566Z,0
2018-07-04T01:07:01.569Z,0
2018-07-04T01:08:03.562Z,0
2018-07-04T01:09:05.945Z,0
2018-07-04T01:10:08.248Z,0
2018-07-04T01:11:10.240Z,0
2018-07-04T01:12:12.892Z,0
2018-07-04T01:13:14.893Z,0
2018-07-04T01:14:16.887Z,0
2018-07-04T01:15:18.882Z,0
2018-07-04T01:16:20.869Z,0
2018-07-04T01:17:22.859Z,0
2018-07-04T01:18:24.854Z,0
2018-07-04T01:19:27.144Z,0
2018-07-04T01:20:29.134Z,0
2018-07-04T01:21:31.131Z,0
2018-07-04T01:22:33.128Z,0
2018-07-04T01:23:35.402Z,0
2018-07-04T01:24:37.403Z,0
2018-07-04T01:25:39.400Z,0
2018-07-04T01:26:41.398Z,0
2018-07-04T01:27:43.394Z,0
2018-07-04T01:28:45.682Z,0
2018-07-04T01:29:48.056Z,0
2018-07-04T01:30:50.051Z,0
2018-07-04T01:31:52.044Z,0
2018-07-04T01:32:54.045Z,0
2018-07-04T01:33:56.337Z,0
2018-07-04T01:34:58.339Z,0
2018-07-04T01:36:00.332Z,0
2018-07-04T01:37:02.333Z,0
2018-07-04T01:38:04.324Z,0
2018-07-04T01:39:06.324Z,0
2018-07-04T01:40:08.372Z,0
2018-07-04T01:41:10.372Z,0
2018-07-04T01:42:12.653Z,0
2018-07-04T01:43:14.650Z,0
2018-07-04T01:44:17.299Z,0
2018-07-04T01:45:19.298Z,0
2018-07-04T01:46:21.293Z,0
2018-07-04T01:47:23.330Z,0
2018-07-04T01:48:25.369Z,0
2018-07-04T01:49:27.411Z,0
2018-07-04T01:50:29.446Z,0
2018-07-04T01:51:31.490Z,0
2018-07-04T01:52:33.530Z,0
2018-07-04T01:53:35.871Z,0
2018-07-04T01:54:38.200Z,0
2018-07-04T01:55:40.614Z,0
2018-07-04T01:56:42.688Z,0
2018-07-04T01:57:44.692Z,0
2018-07-04T01:58:46.725Z,0
2018-07-04T01:59:48.761Z,0
2018-07-04T02:00:50.795Z,0
2018-07-04T02:01:52.828Z,0
2018-07-04T02:02:54.875Z,0
2018-07-04T02:03:57.298Z,0
2018-07-04T02:04:59.334Z,0
2018-07-04T02:06:01.371Z,0
2018-07-04T02:07:03.404Z,0
2018-07-04T02:08:05.446Z,0
2018-07-04T02:09:07.476Z,0
2018-07-04T02:10:09.516Z,0
2018-07-04T02:11:11.836Z,0
2018-07-04T02:12:13.866Z,0
2018-07-04T02:13:16.188Z,0
2018-07-04T02:14:18.232Z,0
2018-07-04T02:15:20.267Z,0
2018-07-04T02:16:22.304Z,0
2018-07-04T02:17:24.617Z,0
2018-07-04T02:18:26.658Z,0
2018-07-04T02:19:28.681Z,0
2018-07-04T02:20:30.718Z,0
2018-07-04T02:21:33.069Z,0
2018-07-04T02:22:35.400Z,0
2018-07-04T02:23:37.432Z,0
2018-07-04T02:24:39.460Z,0
2018-07-04T02:25:41.494Z,0
2018-07-04T02:26:43.532Z,0
2018-07-04T02:27:45.555Z,0
2018-07-04T02:28:47.908Z,0
2018-07-04T02:29:49.942Z,0
2018-07-04T02:30:51.983Z,0
2018-07-04T02:31:54.013Z,0
2018-07-04T02:32:56.051Z,0
2018-07-04T02:33:58.380Z,0
2018-07-04T02:35:00.711Z,0
2018-07-04T02:36:03.317Z,0
2018-07-04T02:37:05.363Z,0
2018-07-04T02:38:07.408Z,0
2018-07-04T02:39:09.739Z,0
2018-07-04T02:40:11.775Z,0
2018-07-04T02:41:14.111Z,0
2018-07-04T02:42:16.148Z,0
2018-07-04T02:43:18.178Z,0
2018-07-04T02:44:20.214Z,1
2018-07-04T02:45:22.265Z,1
2018-07-04T02:46:24.599Z,1
2018-07-04T02:47:26.938Z,1
2018-07-04T02:48:28.980Z,1
2018-07-04T02:49:31.021Z,1
2018-07-04T02:50:33.104Z,1
2018-07-04T02:51:35.426Z,1
2018-07-04T02:52:37.776Z,1
2018-07-04T02:53:39.817Z,1
2018-07-04T02:54:41.848Z,2
2018-07-04T02:55:43.897Z,2
2018-07-04T02:56:46.248Z,2
2018-07-04T02:57:48.864Z,2
2018-07-04T02:58:51.204Z,2
2018-07-04T02:59:53.248Z,2
2018-07-04T03:00:55.673Z,2
2018-07-04T03:01:57.709Z,3
2018-07-04T03:03:00.048Z,3
2018-07-04T03:04:02.366Z,3
2018-07-04T03:05:04.407Z,3
2018-07-04T03:06:06.432Z,3
2018-07-04T03:07:08.471Z,3
2018-07-04T03:08:10.501Z,4
2018-07-04T03:09:12.838Z,4
2018-07-04T03:10:15.258Z,4
2018-07-04T03:11:18.264Z,4
2018-07-04T03:12:20.585Z,4
2018-07-04T03:13:22.624Z,5
2018-07-04T03:14:24.942Z,5
2018-07-04T03:15:27.286Z,5
2018-07-04T03:16:29.897Z,5
2018-07-04T03:17:32.638Z,5
2018-07-04T03:18:35.619Z,6
2018-07-04T03:19:37.943Z,6
2018-07-04T03:20:40.268Z,6
2018-07-04T03:21:42.631Z,6
2018-07-04T03:22:44.959Z,6
2018-07-04T03:23:46.992Z,7
2018-07-04T03:24:49.328Z,7
2018-07-04T03:25:51.662Z,7
2018-07-04T03:26:53.690Z,7
2018-07-04T03:27:55.744Z,7
2018-07-04T03:28:57.782Z,8
2018-07-04T03:30:00.200Z,8
2018-07-04T03:31:02.524Z,8
2018-07-04T03:32:04.558Z,8
2018-07-04T03:33:06.630Z,9
2018-07-04T03:34:08.629Z,9
2018-07-04T03:35:10.670Z,9
2018-07-04T03:36:12.707Z,9
2018-07-04T03:37:14.745Z,10
2018-07-04T03:38:16.780Z,10
2018-07-04T03:39:18.816Z,10
2018-07-04T03:40:20.861Z,10
2018-07-04T03:41:22.903Z,11
2018-07-04T03:42:25.495Z,11
2018-07-04T03:43:27.528Z,11
2018-07-04T03:44:29.564Z,11
2018-07-04T03:45:31.597Z,11
2018-07-04T03:46:33.632Z,12
2018-07-04T03:47:35.962Z,12
2018-07-04T03:48:38.001Z,12
2018-07-04T03:49:40.036Z,12
2018-07-04T03:50:42.068Z,13
2018-07-04T03:51:44.107Z,13
2018-07-04T03:52:46.151Z,13
2018-07-04T03:53:48.462Z,13
2018-07-04T03:54:50.499Z,13
2018-07-04T03:55:52.535Z,14
2018-07-04T03:56:54.572Z,14
2018-07-04T03:57:56.605Z,14
2018-07-04T03:58:58.638Z,14
2018-07-04T04:00:01.060Z,14
2018-07-04T04:01:03.480Z,15
2018-07-04T04:02:05.512Z,15
2018-07-04T04:03:07.553Z,15
2018-07-04T04:04:09.586Z,15
2018-07-04T04:05:11.625Z,15
2018-07-04T04:06:14.335Z,16
2018-07-04T04:07:16.388Z,15
2018-07-04T04:08:18.423Z,15
2018-07-04T04:09:20.455Z,15
2018-07-04T04:10:22.496Z,15
2018-07-04T04:11:24.534Z,15
2018-07-04T04:12:26.574Z,16
2018-07-04T04:13:28.601Z,16
2018-07-04T04:14:31.236Z,16
2018-07-04T04:15:33.284Z,16
2018-07-04T04:16:35.320Z,16
2018-07-04T04:17:37.360Z,17
2018-07-04T04:18:39.390Z,17
2018-07-04T04:19:41.431Z,17
2018-07-04T04:20:43.458Z,17
2018-07-04T04:21:45.487Z,17
2018-07-04T04:22:47.532Z,17
2018-07-04T04:23:50.142Z,18
2018-07-04T04:24:52.174Z,18
2018-07-04T04:25:54.214Z,18
2018-07-04T04:26:56.249Z,18
2018-07-04T04:27:58.576Z,18
2018-07-04T04:29:01.005Z,18
2018-07-04T04:30:03.332Z,19
2018-07-04T04:31:05.365Z,19
2018-07-04T04:32:07.411Z,19
2018-07-04T04:33:09.447Z,19
2018-07-04T04:34:11.472Z,19
2018-07-04T04:35:13.507Z,19
2018-07-04T04:36:15.561Z,19
2018-07-04T04:37:17.583Z,20
2018-07-04T04:38:19.621Z,20
2018-07-04T04:39:21.671Z,20
2018-07-04T04:40:24.008Z,20
2018-07-04T04:41:26.028Z,20
2018-07-04T04:42:28.122Z,20
2018-07-04T04:43:30.098Z,21
2018-07-04T04:44:32.428Z,21
2018-07-04T04:45:34.464Z,21
2018-07-04T04:46:36.793Z,21
2018-07-04T04:47:38.836Z,21
2018-07-04T04:48:40.882Z,21
2018-07-04T04:49:43.191Z,21
2018-07-04T04:50:45.228Z,22
2018-07-04T04:51:47.267Z,22
2018-07-04T04:52:49.590Z,22
2018-07-04T04:53:51.624Z,22
2018-07-04T04:54:53.700Z,22
2018-07-04T04:55:55.712Z,22
2018-07-04T04:56:57.753Z,22
2018-07-04T04:57:59.788Z,23
2018-07-04T04:59:02.502Z,23
2018-07-04T05:00:04.531Z,23
2018-07-04T05:01:06.568Z,23
2018-07-04T05:02:08.604Z,23
2018-07-04T05:03:10.653Z,23
2018-07-04T05:04:15.981Z,23
2018-07-04T05:05:17.984Z,24
2018-07-04T05:06:20.015Z,24
2018-07-04T05:07:22.009Z,24
2018-07-04T05:08:24.014Z,24
2018-07-04T05:09:26.064Z,24
2018-07-04T05:10:28.066Z,24
2018-07-04T05:11:30.342Z,24
2018-07-04T05:12:32.343Z,25
2018-07-04T05:13:34.337Z,25
2018-07-04T05:14:36.619Z,25
2018-07-04T05:15:38.678Z,25
2018-07-04T05:16:40.660Z,25
2018-07-04T05:17:42.661Z,25
2018-07-04T05:18:44.658Z,25
2018-07-04T05:19:48.077Z,24
2018-07-04T05:20:51.514Z,26
2018-07-04T05:21:54.155Z,25
2018-07-04T05:22:56.765Z,25
2018-07-04T05:23:58.811Z,25
2018-07-04T05:25:00.850Z,25
2018-07-04T05:26:03.278Z,25
2018-07-04T05:27:05.312Z,25
2018-07-04T05:28:07.364Z,26
2018-07-04T05:29:09.401Z,26
2018-07-04T05:30:11.445Z,26
2018-07-04T05:31:13.483Z,26
2018-07-04T05:32:15.523Z,26
2018-07-04T05:33:17.838Z,26
2018-07-04T05:34:19.876Z,26
2018-07-04T05:35:22.219Z,26
2018-07-04T05:36:24.257Z,26
2018-07-04T05:37:26.286Z,27
2018-07-04T05:38:28.331Z,27
2018-07-04T05:39:30.365Z,27
2018-07-04T05:40:32.397Z,27
2018-07-04T05:41:34.434Z,27
2018-07-04T05:42:36.474Z,27
2018-07-04T05:43:38.507Z,27
2018-07-04T05:44:40.548Z,27
2018-07-04T05:45:42.583Z,27
2018-07-04T05:46:44.631Z,28
2018-07-04T05:47:46.676Z,28
2018-07-04T05:48:49.590Z,28
2018-07-04T05:49:51.632Z,28
2018-07-04T05:50:53.669Z,28
2018-07-04T05:51:55.709Z,28
2018-07-04T05:52:57.756Z,28
2018-07-04T05:53:59.793Z,28
2018-07-04T05:55:01.822Z,29
2018-07-04T05:56:04.142Z,29
2018-07-04T05:57:06.477Z,29
2018-07-04T05:58:08.516Z,29
2018-07-04T05:59:10.948Z,29
2018-07-04T06:00:13.285Z,29
2018-07-04T06:01:15.625Z,29
2018-07-04T06:02:17.661Z,29
2018-07-04T06:03:19.702Z,29
2018-07-04T06:04:22.035Z,30
2018-07-04T06:05:24.084Z,30
2018-07-04T06:06:26.436Z,30
2018-07-04T06:07:28.478Z,30
2018-07-04T06:08:30.518Z,30
2018-07-04T06:09:32.558Z,30
2018-07-04T06:10:34.882Z,30
2018-07-04T06:11:36.932Z,31
2018-07-04T06:12:38.973Z,31
2018-07-04T06:13:41.011Z,31
2018-07-04T06:14:43.344Z,31
2018-07-04T06:15:45.387Z,31
2018-07-04T06:16:47.434Z,31
2018-07-04T06:17:49.475Z,31
2018-07-04T06:18:51.522Z,31
2018-07-04T06:19:53.565Z,31
2018-07-04T06:20:55.592Z,32
2018-07-04T06:21:57.629Z,32
2018-07-04T06:22:59.673Z,32
2018-07-04T06:24:01.720Z,32
2018-07-04T06:25:04.154Z,32
2018-07-04T06:26:06.478Z,32
2018-07-04T06:27:08.520Z,32
2018-07-04T06:28:10.571Z,32
2018-07-04T06:29:12.612Z,32
2018-07-04T06:30:14.653Z,32
2018-07-04T06:31:16.695Z,32
2018-07-04T06:32:19.077Z,32
2018-07-04T06:33:21.093Z,32
2018-07-04T06:34:23.126Z,32
2018-07-04T06:35:25.471Z,32
2018-07-04T06:36:27.514Z,32
2018-07-04T06:37:29.557Z,32
2018-07-04T06:38:31.600Z,32
2018-07-04T06:39:33.648Z,33
2018-07-04T06:40:35.690Z,34
2018-07-04T06:41:37.733Z,33
2018-07-04T06:42:40.066Z,33
2018-07-04T06:43:42.419Z,33
2018-07-04T06:44:44.730Z,34
2018-07-04T06:45:47.055Z,34
2018-07-04T06:46:49.111Z,34
2018-07-04T06:47:51.429Z,35
2018-07-04T06:48:53.533Z,35
2018-07-04T06:49:55.512Z,35
2018-07-04T06:50:57.553Z,35
2018-07-04T06:51:59.595Z,35
2018-07-04T06:53:01.632Z,35
2018-07-04T06:54:03.703Z,36
2018-07-04T06:55:06.123Z,36
2018-07-04T06:56:08.162Z,36
2018-07-04T06:57:10.495Z,36
2018-07-04T06:58:12.551Z,36
2018-07-04T06:59:14.872Z,37
2018-07-04T07:00:17.315Z,37
2018-07-04T07:01:19.649Z,37
2018-07-04T07:02:21.693Z,37
2018-07-04T07:03:23.741Z,37
2018-07-04T07:04:25.787Z,37
2018-07-04T07:05:27.831Z,38
2018-07-04T07:06:29.868Z,39
2018-07-04T07:07:31.915Z,38
2018-07-04T07:08:33.989Z,38
2018-07-04T07:09:36.016Z,38
2018-07-04T07:10:38.058Z,38
2018-07-04T07:11:40.096Z,38
2018-07-04T07:12:42.138Z,38
2018-07-04T07:13:44.181Z,38
2018-07-04T07:14:46.227Z,39
2018-07-04T07:15:48.279Z,39
2018-07-04T07:16:50.607Z,39
2018-07-04T07:17:52.944Z,39
2018-07-04T07:18:54.982Z,39
2018-07-04T07:19:57.334Z,39
2018-07-04T07:20:59.384Z,40
2018-07-04T07:22:01.823Z,40
2018-07-04T07:23:03.870Z,40
2018-07-04T07:24:05.912Z,40
2018-07-04T07:25:08.620Z,40
2018-07-04T07:26:10.671Z,40
2018-07-04T07:27:12.995Z,41
2018-07-04T07:28:15.048Z,41
2018-07-04T07:29:17.094Z,41
2018-07-04T07:30:19.135Z,41
2018-07-04T07:31:21.181Z,41
2018-07-04T07:32:23.529Z,43
2018-07-04T07:33:25.627Z,42
2018-07-04T07:34:27.916Z,42
2018-07-04T07:35:29.954Z,42
2018-07-04T07:36:32.386Z,42
2018-07-04T07:37:34.810Z,42
2018-07-04T07:38:36.855Z,42
2018-07-04T07:39:38.897Z,42
2018-07-04T07:40:40.941Z,42
2018-07-04T07:41:42.989Z,43
2018-07-04T07:42:45.033Z,43
2018-07-04T07:43:47.379Z,43
2018-07-04T07:44:49.426Z,43
2018-07-04T07:45:51.464Z,43
2018-07-04T07:46:53.519Z,43
2018-07-04T07:47:55.565Z,43
2018-07-04T07:48:57.613Z,44
2018-07-04T07:49:59.651Z,44
2018-07-04T07:51:01.710Z,44
2018-07-04T07:52:03.767Z,44
2018-07-04T07:53:06.201Z,44
2018-07-04T07:54:08.744Z,44
2018-07-04T07:55:10.711Z,45
2018-07-04T07:56:12.771Z,45
2018-07-04T07:57:14.808Z,45
2018-07-04T07:58:16.861Z,45
2018-07-04T07:59:18.909Z,46
2018-07-04T08:00:21.229Z,46
2018-07-04T08:01:23.275Z,46
2018-07-04T08:02:25.329Z,46
2018-07-04T08:03:27.373Z,46
2018-07-04T08:04:29.420Z,46
2018-07-04T08:05:31.455Z,46
2018-07-04T08:06:33.501Z,47
2018-07-04T08:07:35.549Z,47
2018-07-04T08:08:37.597Z,47
2018-07-04T08:09:39.921Z,47
2018-07-04T08:10:42.540Z,47
2018-07-04T08:11:44.967Z,47
2018-07-04T08:12:47.341Z,47
2018-07-04T08:13:49.365Z,47
2018-07-04T08:14:51.428Z,48
2018-07-04T08:15:53.479Z,48
2018-07-04T08:16:55.809Z,48
2018-07-04T08:17:57.851Z,49
2018-07-04T08:18:59.897Z,49
2018-07-04T08:20:01.946Z,49
2018-07-04T08:21:04.590Z,49
2018-07-04T08:22:07.019Z,49
2018-07-04T08:23:09.067Z,49
2018-07-04T08:24:11.115Z,50
2018-07-04T08:25:13.162Z,49
2018-07-04T08:26:15.520Z,50
2018-07-04T08:27:17.565Z,50
2018-07-04T08:28:19.609Z,50
2018-07-04T08:29:21.942Z,51
2018-07-04T08:30:24.374Z,51
2018-07-04T08:31:26.425Z,51
2018-07-04T08:32:28.465Z,51
2018-07-04T08:33:30.561Z,57
2018-07-04T08:34:32.558Z,111
2018-07-04T08:35:34.611Z,116
2018-07-04T08:36:36.655Z,125
2018-07-04T08:37:38.693Z,99
2018-07-04T08:38:40.748Z,97
2018-07-04T08:39:42.792Z,74
2018-07-04T08:40:44.827Z,81
2018-07-04T08:41:46.876Z,104
2018-07-04T08:42:49.213Z,129
2018-07-04T08:43:51.549Z,159
2018-07-04T08:44:53.593Z,124
2018-07-04T08:45:55.635Z,203
2018-07-04T08:46:57.698Z,323
2018-07-04T08:47:59.730Z,336
2018-07-04T08:49:01.775Z,317
2018-07-04T08:50:04.114Z,353
2018-07-04T08:51:06.163Z,395
2018-07-04T08:52:08.217Z,375
2018-07-04T08:53:10.260Z,325
2018-07-04T08:54:12.297Z,342
2018-07-04T08:55:14.358Z,385
2018-07-04T08:56:16.405Z,417
2018-07-04T08:57:18.739Z,399
2018-07-04T08:58:21.286Z,394
2018-07-04T08:59:23.690Z,434
2018-07-04T09:00:26.130Z,444
2018-07-04T09:01:28.177Z,414
2018-07-04T09:02:30.544Z,397
2018-07-04T09:03:33.162Z,425
2018-07-04T09:04:35.497Z,413
2018-07-04T09:05:37.957Z,360
2018-07-04T09:06:39.944Z,396
2018-07-04T09:07:42.272Z,395
2018-07-04T09:08:44.314Z,368
2018-07-04T09:09:46.362Z,372
2018-07-04T09:10:48.409Z,390
2018-07-04T09:11:50.503Z,397
2018-07-04T09:12:52.791Z,417
2018-07-04T09:13:55.112Z,427
2018-07-04T09:14:57.161Z,435
2018-07-04T09:15:59.203Z,459
2018-07-04T09:17:01.249Z,454
2018-07-04T09:18:03.299Z,462
2018-07-04T09:19:05.354Z,479
2018-07-04T09:20:07.711Z,466
2018-07-04T09:21:09.751Z,429
2018-07-04T09:22:11.802Z,378
2018-07-04T09:23:14.242Z,403
2018-07-04T09:24:16.693Z,455
2018-07-04T09:25:18.739Z,432
2018-07-04T09:26:20.792Z,399
2018-07-04T09:27:22.837Z,349
2018-07-04T09:28:25.175Z,327
2018-07-04T09:29:27.900Z,348
2018-07-04T09:30:29.956Z,383
2018-07-04T09:31:32.013Z,427
2018-07-04T09:32:35.131Z,384
2018-07-04T09:33:37.479Z,398
2018-07-04T09:34:39.529Z,414
2018-07-04T09:35:41.573Z,394
2018-07-04T09:36:44.014Z,407
2018-07-04T09:37:46.060Z,454
2018-07-04T09:38:48.397Z,431
2018-07-04T09:39:50.463Z,402
2018-07-04T09:40:52.514Z,418
2018-07-04T09:41:54.559Z,420
2018-07-04T09:42:56.618Z,430
2018-07-04T09:43:58.667Z,399
2018-07-04T09:45:00.721Z,395
2018-07-04T09:46:02.767Z,437
2018-07-04T09:47:04.824Z,463
2018-07-04T09:48:07.168Z,451
2018-07-04T09:49:09.497Z,448
2018-07-04T09:50:11.832Z,447
2018-07-04T09:51:14.175Z,445
2018-07-04T09:52:16.637Z,494
2018-07-04T09:53:18.674Z,455
2018-07-04T09:54:20.723Z,438
2018-07-04T09:55:23.063Z,461
2018-07-04T09:56:25.114Z,454
2018-07-04T09:57:27.550Z,496
2018-07-04T09:58:29.608Z,470
2018-07-04T09:59:31.660Z,439
2018-07-04T10:00:33.714Z,450
2018-07-04T10:01:35.756Z,471
2018-07-04T10:02:37.815Z,471
2018-07-04T10:03:39.868Z,486
2018-07-04T10:04:41.924Z,501
2018-07-04T10:05:44.026Z,520
2018-07-04T10:06:46.323Z,487
2018-07-04T10:07:48.374Z,447
2018-07-04T10:08:50.419Z,497
2018-07-04T10:09:52.473Z,491
2018-07-04T10:10:54.544Z,390
2018-07-04T10:11:56.588Z,451
2018-07-04T10:12:58.940Z,518
2018-07-04T10:14:00.992Z,488
2018-07-04T10:15:03.041Z,493
2018-07-04T10:16:05.095Z,525
2018-07-04T10:17:07.148Z,491
2018-07-04T10:18:09.586Z,489
2018-07-04T10:19:12.032Z,474
2018-07-04T10:20:14.073Z,448
2018-07-04T10:21:16.138Z,464
2018-07-04T10:22:18.464Z,422
2018-07-04T10:23:20.516Z,419
2018-07-04T10:24:22.864Z,451
2018-07-04T10:25:25.209Z,480
2018-07-04T10:26:27.268Z,477
2018-07-04T10:27:29.604Z,483
2018-07-04T10:28:31.653Z,492
2018-07-04T10:29:34.120Z,545
2018-07-04T10:30:36.461Z,541
2018-07-04T10:31:38.504Z,497
2018-07-04T10:32:40.558Z,519
2018-07-04T10:33:42.617Z,505
2018-07-04T10:34:44.662Z,559
2018-07-04T10:35:47.112Z,541
2018-07-04T10:36:49.172Z,533
2018-07-04T10:37:51.231Z,600
2018-07-04T10:38:53.292Z,593
2018-07-04T10:39:55.345Z,518
2018-07-04T10:40:57.693Z,557
2018-07-04T10:41:59.907Z,543
2018-07-04T10:43:01.964Z,502
2018-07-04T10:44:04.313Z,490
2018-07-04T10:45:06.650Z,469
2018-07-04T10:46:08.716Z,494
2018-07-04T10:47:10.772Z,588
2018-07-04T10:48:12.830Z,546
2018-07-04T10:49:14.889Z,511
2018-07-04T10:50:16.941Z,521
2018-07-04T10:51:18.996Z,501
2018-07-04T10:52:21.050Z,515
2018-07-04T10:53:23.118Z,549
2018-07-04T10:54:25.173Z,509
2018-07-04T10:55:27.219Z,480
2018-07-04T10:56:29.280Z,549
2018-07-04T10:57:31.341Z,560
2018-07-04T10:58:33.516Z,500
2018-07-04T10:59:35.752Z,510
2018-07-04T11:00:37.812Z,511
2018-07-04T11:01:39.873Z,554
2018-07-04T11:02:41.914Z,554
2018-07-04T11:03:43.975Z,527
2018-07-04T11:04:46.038Z,521
2018-07-04T11:05:48.094Z,503
2018-07-04T11:06:50.451Z,515
2018-07-04T11:07:53.496Z,517
2018-07-04T11:08:55.570Z,465
2018-07-04T11:09:57.616Z,448
2018-07-04T11:10:59.670Z,504
2018-07-04T11:12:01.743Z,504
2018-07-04T11:13:04.115Z,494
2018-07-04T11:14:06.179Z,535
2018-07-04T11:15:08.230Z,534
2018-07-04T11:16:10.291Z,508
2018-07-04T11:17:12.535Z,428
2018-07-04T11:18:14.955Z,482
2018-07-04T11:19:17.248Z,586
2018-07-04T11:20:19.309Z,537
2018-07-04T11:21:21.824Z,537
2018-07-04T11:22:24.310Z,551
2018-07-04T11:23:26.779Z,542
2018-07-04T11:24:28.912Z,574
2018-07-04T11:25:31.092Z,588
2018-07-04T11:26:33.220Z,550
2018-07-04T11:27:35.345Z,545
2018-07-04T11:28:37.728Z,544
2018-07-04T11:29:39.849Z,573
2018-07-04T11:30:42.050Z,619
2018-07-04T11:31:44.532Z,595
2018-07-04T11:32:46.656Z,550
2018-07-04T11:33:48.836Z,536
2018-07-04T11:34:50.968Z,574
2018-07-04T11:35:53.282Z,559
2018-07-04T11:36:55.536Z,564
2018-07-04T11:37:58.778Z,544
2018-07-04T11:39:00.915Z,522
2018-07-04T11:40:03.414Z,518
2018-07-04T11:41:05.615Z,514
2018-07-04T11:42:07.849Z,519
2018-07-04T11:43:10.376Z,486
2018-07-04T11:44:12.510Z,542
2018-07-04T11:45:15.727Z,563
2018-07-04T11:46:18.488Z,567
2018-07-04T11:47:20.582Z,578
2018-07-04T11:48:22.709Z,561
2018-07-04T11:49:25.106Z,557
2018-07-04T11:50:27.193Z,613
2018-07-04T11:51:29.793Z,571
2018-07-04T11:52:32.172Z,548
2018-07-04T11:53:34.365Z,550
2018-07-04T11:54:37.338Z,596
2018-07-04T11:55:40.992Z,611
2018-07-04T11:56:43.244Z,576
2018-07-04T11:57:45.921Z,555
2018-07-04T11:58:49.257Z,540
2018-07-04T11:59:51.684Z,601
2018-07-04T12:00:54.884Z,622
2018-07-04T12:01:57.754Z,589
2018-07-04T12:03:00.368Z,533
2018-07-04T12:04:03.230Z,551
2018-07-04T12:05:06.567Z,559
2018-07-04T12:06:08.765Z,527
2018-07-04T12:07:11.921Z,511
2018-07-04T12:08:15.132Z,528
2018-07-04T12:09:18.133Z,496
2018-07-04T12:10:20.521Z,485
2018-07-04T12:11:23.097Z,512
2018-07-04T12:12:26.460Z,510
2018-07-04T12:13:28.933Z,548
2018-07-04T12:14:31.094Z,560
2018-07-04T12:15:34.749Z,533
2018-07-04T12:16:37.574Z,515
2018-07-04T12:17:40.245Z,512
2018-07-04T12:18:42.359Z,483
2018-07-04T12:19:46.256Z,478
2018-07-04T12:20:48.796Z,491
2018-07-04T12:21:51.443Z,515
2018-07-04T12:22:54.729Z,492
2018-07-04T12:23:57.447Z,476
2018-07-04T12:25:00.022Z,479
2018-07-04T12:26:02.451Z,447
2018-07-04T12:27:04.987Z,450
2018-07-04T12:28:08.026Z,438
2018-07-04T12:29:10.327Z,473
2018-07-04T12:30:12.406Z,501
2018-07-04T12:31:14.580Z,533
2018-07-04T12:32:16.658Z,490
2018-07-04T12:33:18.917Z,446
2018-07-04T12:34:21.345Z,465
2018-07-04T12:35:23.437Z,453
2018-07-04T12:36:25.522Z,469
2018-07-04T12:37:27.721Z,480
2018-07-04T12:38:30.538Z,469
2018-07-04T12:39:33.412Z,483
2018-07-04T12:40:35.903Z,491
2018-07-04T12:41:37.982Z,436
2018-07-04T12:42:40.054Z,422
2018-07-04T12:43:42.879Z,427
2018-07-04T12:44:45.394Z,453
2018-07-04T12:45:47.979Z,457
2018-07-04T12:46:50.621Z,494
2018-07-04T12:47:53.326Z,488
2018-07-04T12:48:55.525Z,474
2018-07-04T12:49:57.622Z,515
2018-07-04T12:50:59.988Z,519
2018-07-04T12:52:02.395Z,464
2018-07-04T12:53:04.542Z,455
2018-07-04T12:54:08.095Z,454
2018-07-04T12:55:10.574Z,440
2018-07-04T12:56:12.656Z,437
2018-07-04T12:57:14.792Z,432
2018-07-04T12:58:16.813Z,427
2018-07-04T12:59:19.247Z,420
2018-07-04T13:00:21.320Z,399
2018-07-04T13:01:23.499Z,383
2018-07-04T13:02:25.836Z,399
2018-07-04T13:03:27.956Z,428
2018-07-04T13:04:30.056Z,432
2018-07-04T13:05:32.267Z,412
2018-07-04T13:06:34.515Z,454
2018-07-04T13:07:37.060Z,440
2018-07-04T13:08:39.252Z,426
2018-07-04T13:09:41.554Z,425
2018-07-04T13:10:44.230Z,432
2018-07-04T13:11:46.479Z,437
2018-07-04T13:12:49.104Z,424
2018-07-04T13:13:52.256Z,399
2018-07-04T13:14:54.792Z,409
2018-07-04T13:15:57.087Z,450
2018-07-04T13:16:59.475Z,473
2018-07-04T13:18:01.846Z,445
2018-07-04T13:19:04.213Z,473
2018-07-04T13:20:06.560Z,478
2018-07-04T13:21:08.719Z,454
2018-07-04T13:22:11.096Z,451
2018-07-04T13:23:13.703Z,440
2018-07-04T13:24:15.806Z,454
2018-07-04T13:25:17.867Z,440
2018-07-04T13:26:19.993Z,424
2018-07-04T13:27:22.093Z,466
2018-07-04T13:28:24.527Z,481
2018-07-04T13:29:26.652Z,463
2018-07-04T13:30:28.757Z,472
2018-07-04T13:31:30.922Z,452
2018-07-04T13:32:32.996Z,430
2018-07-04T13:33:35.092Z,453
2018-07-04T13:34:37.898Z,447
2018-07-04T13:35:40.016Z,424
2018-07-04T13:36:42.456Z,419
2018-07-04T13:37:45.230Z,385
2018-07-04T13:38:47.326Z,416
2018-07-04T13:39:49.550Z,428
2018-07-04T13:40:51.650Z,407
2018-07-04T13:41:54.230Z,411
2018-07-04T13:42:56.392Z,409
2018-07-04T13:43:58.510Z,406
2018-07-04T13:45:00.611Z,391
2018-07-04T13:46:02.773Z,432
2018-07-04T13:47:04.935Z,442
2018-07-04T13:48:07.315Z,409
2018-07-04T13:49:09.391Z,384
2018-07-04T13:50:11.879Z,403
2018-07-04T13:51:13.962Z,412
2018-07-04T13:52:16.097Z,433
2018-07-04T13:53:18.212Z,435
2018-07-04T13:54:20.373Z,404
2018-07-04T13:55:22.473Z,354
2018-07-04T13:56:24.572Z,353
2018-07-04T13:57:26.659Z,401
2018-07-04T13:58:28.796Z,359
2018-07-04T13:59:31.234Z,350
2018-07-04T14:00:33.395Z,376
2018-07-04T14:01:35.480Z,381
2018-07-04T14:02:37.717Z,404
2018-07-04T14:03:40.387Z,404
2018-07-04T14:04:42.404Z,399
2018-07-04T14:05:44.514Z,410
2018-07-04T14:06:46.828Z,366
2018-07-04T14:07:49.011Z,379
2018-07-04T14:08:51.720Z,376
2018-07-04T14:09:53.814Z,370
2018-07-04T14:10:55.906Z,367
2018-07-04T14:11:58.107Z,369
2018-07-04T14:13:00.187Z,398
2018-07-04T14:14:02.616Z,377
2018-07-04T14:15:05.082Z,361
2018-07-04T14:16:07.217Z,363
2018-07-04T14:17:09.372Z,366
2018-07-04T14:18:11.555Z,341
2018-07-04T14:19:14.099Z,323
2018-07-04T14:20:16.211Z,367
2018-07-04T14:21:18.368Z,398
2018-07-04T14:22:20.900Z,394
2018-07-04T14:23:23.069Z,411
2018-07-04T14:24:25.553Z,434
2018-07-04T14:25:27.819Z,410
2018-07-04T14:26:30.009Z,391
2018-07-04T14:27:32.097Z,395
2018-07-04T14:28:34.176Z,398
2018-07-04T14:29:36.607Z,392
2018-07-04T14:30:38.748Z,393
2018-07-04T14:31:40.884Z,414
2018-07-04T14:32:43.104Z,404
2018-07-04T14:33:45.188Z,377
2018-07-04T14:34:47.397Z,359
2018-07-04T14:35:49.951Z,369
2018-07-04T14:36:52.188Z,368
2018-07-04T14:37:54.676Z,342
2018-07-04T14:38:57.268Z,342
2018-07-04T14:39:59.550Z,352
2018-07-04T14:41:01.875Z,367
2018-07-04T14:42:04.142Z,358